M/V Divine Mercy — WDE2637 — position and weather

sailwx.info

Track history (hours):
 
Tides and Currents Weather Stations Pressure Air Temp Water Temp Dewpoint Dewpoint Depression Visibility Wind Speed Wind Dir Waves Ship Positions

M/V Divine Mercy

Owner: Marquette Transportation Company Gulf-Inland, LLC, Jefferson, LA. More information available from US FCC via Universal Licensing System and Coast Guard Vessel Documentation Center.

Last reported at 2017-Dec-11 05:55 UTC. Time now 2017-Dec-16 01:46 UTC.
Position N 29°23' W 094°53'.

Length 23 m; draft 2.7 m.

Type: Towing. MMSI: 367327630.

Date/timePositionNaut miles runAvg speedWind from/ knotsBaromVisibWave heightAir tempDewpointWater temp
2017-Dec-11 05:55N 29°23' W 094°53'111 2.5
2017-Dec-09 09:59N 28°20' W 096°37'15 5.1
2017-Dec-09 07:06N 28°11' W 096°50'1 7.2
2017-Dec-09 06:59N 28°11' W 096°51'4 7.7
2017-Dec-09 06:29N 28°08' W 096°54'3 6.4
2017-Dec-09 06:00N 28°06' W 096°56'4 7.0
2017-Dec-09 05:30N 28°03' W 096°59'4 7.5
2017-Dec-09 04:59N 28°00' W 097°02'3 6.7
2017-Dec-09 04:29N 27°57' W 097°03'4 7.9
2017-Dec-09 04:00N 27°53' W 097°03'3 6.7
2017-Dec-09 03:30N 27°50' W 097°05'3 5.7
2017-Dec-09 03:00N 27°50' W 097°08'3 6.4
2017-Dec-09 02:29N 27°49' W 097°11'3 7.0
2017-Dec-09 02:00N 27°49' W 097°15'4 7.1
2017-Dec-09 01:29N 27°49' W 097°19'4 7.2
2017-Dec-09 00:59N 27°49' W 097°23'4 6.1
2017-Dec-09 00:21N 27°49' W 097°28'1 1.7
2017-Dec-08 23:53N 27°49' W 097°29'0 0.0
2017-Dec-08 23:29N 27°49' W 097°29'0 0.0
2017-Dec-08 15:18N 27°49' W 097°29'0 0.1
2017-Dec-08 13:44N 27°49' W 097°29'0 0.0
2017-Dec-08 13:29N 27°49' W 097°29'0 0.0
2017-Dec-08 10:41N 27°49' W 097°29'0 0.0
2017-Dec-08 10:29N 27°49' W 097°29'0 0.0
2017-Dec-08 09:53N 27°49' W 097°29'0 0.0
2017-Dec-08 09:20N 27°49' W 097°29'0 0.0
2017-Dec-08 08:47N 27°49' W 097°29'0 0.0
2017-Dec-08 06:41N 27°49' W 097°29'0 0.1
2017-Dec-08 06:14N 27°49' W 097°29'1 0.1
2017-Dec-07 23:46N 27°50' W 097°30'0 0.0
2017-Dec-07 19:14N 27°50' W 097°30'1 5.3
2017-Dec-07 19:00N 27°49' W 097°28'1 0.1
2017-Dec-07 01:50N 27°50' W 097°30'2 6.2
2017-Dec-07 01:30N 27°49' W 097°28'1 1.8
2017-Dec-07 00:45N 27°49' W 097°26'0 0.0
2017-Dec-07 00:30N 27°49' W 097°26'0 0.0
2017-Dec-06 23:51N 27°49' W 097°26'0 0.0
2017-Dec-06 23:30N 27°49' W 097°26'0 0.0
2017-Dec-06 22:36N 27°49' W 097°26'  
2017-Dec-03 02:54N 29°01' W 095°14'2 4.2
2017-Dec-03 02:29N 29°02' W 095°14'2 3.8
2017-Dec-03 01:56N 29°04' W 095°13'29 2.1
2017-Dec-02 12:19N 29°22' W 094°47'10 4.8
2017-Dec-02 10:15N 29°31' W 094°53'1 5.1
2017-Dec-02 10:00N 29°32' W 094°54'2 4.9
2017-Dec-02 09:30N 29°34' W 094°55'2 4.8
2017-Dec-02 09:00N 29°36' W 094°57'2 4.8
2017-Dec-02 08:30N 29°38' W 094°58'3 5.0
2017-Dec-02 08:00N 29°41' W 094°59'3 5.2
2017-Dec-02 07:30N 29°42' W 095°01'2 4.3
2017-Dec-02 07:00N 29°44' W 095°03'3 4.2
2017-Dec-02 06:21N 29°46' W 095°05'1 3.8
2017-Dec-02 06:00N 29°47' W 095°04'0 0.4
2017-Dec-02 04:42N 29°47' W 095°04'0 0.0
2017-Dec-02 04:22N 29°47' W 095°04'0 0.0
2017-Dec-02 04:00N 29°47' W 095°04'0 0.6
2017-Dec-02 03:30N 29°47' W 095°04'0 0.3
2017-Dec-02 02:48N 29°47' W 095°04'1 3.2
2017-Dec-02 02:26N 29°46' W 095°05'2 4.6
2017-Dec-02 02:00N 29°44' W 095°03'3 5.7
2017-Dec-02 01:30N 29°42' W 095°01'4 8.6
2017-Dec-02 01:00N 29°39' W 094°58'4 8.8
2017-Dec-02 00:30N 29°35' W 094°56'5 9.3
2017-Dec-02 00:00N 29°31' W 094°53'41 6.0
2017-Dec-01 17:03N 28°57' W 095°20'  
Track history (hours):
 
Tides and Currents Weather Stations Pressure Air Temp Water Temp Dewpoint Dewpoint Depression Visibility Wind Speed Wind Dir Waves Ship Positions

M/V Divine Mercy

Owner: Marquette Transportation Company Gulf-Inland, LLC, Jefferson, LA. More information available from US FCC via Universal Licensing System and Coast Guard Vessel Documentation Center.

Last reported at 2017-Dec-11 05:55 UTC. Time now 2017-Dec-16 01:46 UTC.
Position N 29°23' W 094°53'.

Length 23 m; draft 2.7 m.

Type: Towing. MMSI: 367327630.

Date/timePositionNaut miles runAvg speedWind from/ knotsBaromVisibWave heightAir tempDewpointWater temp
2017-Dec-11 05:55N 29°23' W 094°53'111 2.5
2017-Dec-09 09:59N 28°20' W 096°37'15 5.1
2017-Dec-09 07:06N 28°11' W 096°50'1 7.2
2017-Dec-09 06:59N 28°11' W 096°51'4 7.7
2017-Dec-09 06:29N 28°08' W 096°54'3 6.4
2017-Dec-09 06:00N 28°06' W 096°56'4 7.0
2017-Dec-09 05:30N 28°03' W 096°59'4 7.5
2017-Dec-09 04:59N 28°00' W 097°02'3 6.7
2017-Dec-09 04:29N 27°57' W 097°03'4 7.9
2017-Dec-09 04:00N 27°53' W 097°03'3 6.7
2017-Dec-09 03:30N 27°50' W 097°05'3 5.7
2017-Dec-09 03:00N 27°50' W 097°08'3 6.4
2017-Dec-09 02:29N 27°49' W 097°11'3 7.0
2017-Dec-09 02:00N 27°49' W 097°15'4 7.1
2017-Dec-09 01:29N 27°49' W 097°19'4 7.2
2017-Dec-09 00:59N 27°49' W 097°23'4 6.1
2017-Dec-09 00:21N 27°49' W 097°28'1 1.7
2017-Dec-08 23:53N 27°49' W 097°29'0 0.0
2017-Dec-08 23:29N 27°49' W 097°29'0 0.0
2017-Dec-08 15:18N 27°49' W 097°29'0 0.1
2017-Dec-08 13:44N 27°49' W 097°29'0 0.0
2017-Dec-08 13:29N 27°49' W 097°29'0 0.0
2017-Dec-08 10:41N 27°49' W 097°29'0 0.0
2017-Dec-08 10:29N 27°49' W 097°29'0 0.0
2017-Dec-08 09:53N 27°49' W 097°29'0 0.0
2017-Dec-08 09:20N 27°49' W 097°29'0 0.0
2017-Dec-08 08:47N 27°49' W 097°29'0 0.0
2017-Dec-08 06:41N 27°49' W 097°29'0 0.1
2017-Dec-08 06:14N 27°49' W 097°29'1 0.1
2017-Dec-07 23:46N 27°50' W 097°30'0 0.0
2017-Dec-07 19:14N 27°50' W 097°30'1 5.3
2017-Dec-07 19:00N 27°49' W 097°28'1 0.1
2017-Dec-07 01:50N 27°50' W 097°30'2 6.2
2017-Dec-07 01:30N 27°49' W 097°28'1 1.8
2017-Dec-07 00:45N 27°49' W 097°26'0 0.0
2017-Dec-07 00:30N 27°49' W 097°26'0 0.0
2017-Dec-06 23:51N 27°49' W 097°26'0 0.0
2017-Dec-06 23:30N 27°49' W 097°26'0 0.0
2017-Dec-06 22:36N 27°49' W 097°26'  
2017-Dec-03 02:54N 29°01' W 095°14'2 4.2
2017-Dec-03 02:29N 29°02' W 095°14'2 3.8
2017-Dec-03 01:56N 29°04' W 095°13'29 2.1
2017-Dec-02 12:19N 29°22' W 094°47'10 4.8
2017-Dec-02 10:15N 29°31' W 094°53'1 5.1
2017-Dec-02 10:00N 29°32' W 094°54'2 4.9
2017-Dec-02 09:30N 29°34' W 094°55'2 4.8
2017-Dec-02 09:00N 29°36' W 094°57'2 4.8
2017-Dec-02 08:30N 29°38' W 094°58'3 5.0
2017-Dec-02 08:00N 29°41' W 094°59'3 5.2
2017-Dec-02 07:30N 29°42' W 095°01'2 4.3
2017-Dec-02 07:00N 29°44' W 095°03'3 4.2
2017-Dec-02 06:21N 29°46' W 095°05'1 3.8
2017-Dec-02 06:00N 29°47' W 095°04'0 0.4
2017-Dec-02 04:42N 29°47' W 095°04'0 0.0
2017-Dec-02 04:22N 29°47' W 095°04'0 0.0
2017-Dec-02 04:00N 29°47' W 095°04'0 0.6
2017-Dec-02 03:30N 29°47' W 095°04'0 0.3
2017-Dec-02 02:48N 29°47' W 095°04'1 3.2
2017-Dec-02 02:26N 29°46' W 095°05'2 4.6
2017-Dec-02 02:00N 29°44' W 095°03'3 5.7
2017-Dec-02 01:30N 29°42' W 095°01'4 8.6
2017-Dec-02 01:00N 29°39' W 094°58'4 8.8
2017-Dec-02 00:30N 29°35' W 094°56'5 9.3
2017-Dec-02 00:00N 29°31' W 094°53'41 6.0
2017-Dec-01 17:03N 28°57' W 095°20'  

Dump ship's entire track history